Time;durP1;ratioP1;P1;durP2;ratioP2;P2;SDS_P1;SDS_P2;PMS_P1;PMS_P2;Temp;Humidity;BMP_temperature;BMP_pressure;BME280_temperature;BME280_humidity;BME280_pressure;Samples;Min_cycle;Max_cycle;Signal;HPM_P1;HPM_P2
2022/09/23 00:01:21;;;;;;;2.35;1.50;;;17.80;90.20;;;;;;4691493;28;20838;-75
2022/09/23 00:03:49;;;;;;;3.78;2.33;;;17.80;90.30;;;;;;4784793;28;20135;-73
2022/09/23 00:06:21;;;;;;;4.95;2.10;;;17.70;90.30;;;;;;5030507;28;20799;-73
2022/09/23 00:08:50;;;;;;;4.82;2.92;;;17.70;90.30;;;;;;5040234;28;20372;-73
2022/09/23 00:11:23;;;;;;;3.03;1.73;;;17.70;90.30;;;;;;5051581;28;20049;-73
2022/09/23 00:13:57;;;;;;;4.15;1.90;;;17.60;90.30;;;;;;5034315;28;20044;-74
2022/09/23 00:16:32;;;;;;;3.28;1.73;;;17.60;90.40;;;;;;5047678;28;20394;-73
2022/09/23 00:19:02;;;;;;;2.92;1.90;;;17.50;90.40;;;;;;5035264;28;20041;-73
2022/09/23 00:21:29;;;;;;;3.20;1.92;;;17.50;90.40;;;;;;5035763;28;20478;-74
2022/09/23 00:23:57;;;;;;;2.20;1.70;;;17.50;90.50;;;;;;5070476;28;20040;-74
2022/09/23 00:26:25;;;;;;;2.30;1.50;;;17.40;90.50;;;;;;5052196;28;20482;-73
2022/09/23 00:28:52;;;;;;;4.30;2.00;;;17.40;90.50;;;;;;5035702;28;20394;-74
2022/09/23 00:31:23;;;;;;;4.07;1.80;;;17.40;90.50;;;;;;5035730;28;20166;-76
2022/09/23 00:33:55;;;;;;;4.68;1.58;;;17.30;90.50;;;;;;5052036;28;20390;-74
2022/09/23 00:36:24;;;;;;;3.30;2.20;;;17.30;90.50;;;;;;5035356;28;20040;-74
2022/09/23 00:38:52;;;;;;;2.80;1.75;;;17.30;90.60;;;;;;5051907;28;20045;-74
2022/09/23 00:41:20;;;;;;;2.90;2.00;;;17.20;90.60;;;;;;5069954;28;20053;-74
2022/09/23 00:43:54;;;;;;;3.22;1.90;;;17.20;90.50;;;;;;5051873;28;20044;-75
2022/09/23 00:46:28;;;;;;;5.65;2.53;;;17.20;90.50;;;;;;5035738;28;20063;-73
2022/09/23 00:49:22;;;;;;;4.20;2.10;;;17.10;90.50;;;;;;5067659;28;20044;-76
2022/09/23 00:51:56;;;;;;;2.55;1.58;;;17.10;90.60;;;;;;5049236;28;20398;-74
2022/09/23 00:54:26;;;;;;;3.33;1.65;;;17.10;90.70;;;;;;5035018;28;20813;-74
2022/09/23 00:56:55;;;;;;;2.75;1.70;;;17.00;90.70;;;;;;5037895;28;20158;-73
2022/09/23 00:59:24;;;;;;;3.45;1.70;;;17.00;90.70;;;;;;5055745;28;20056;-77
2022/09/23 01:01:55;;;;;;;3.88;1.90;;;16.90;90.80;;;;;;5055582;28;20061;-74
2022/09/23 01:04:25;;;;;;;3.15;2.20;;;16.90;90.80;;;;;;5055680;28;20119;-73
2022/09/23 01:06:53;;;;;;;3.22;1.83;;;16.90;90.80;;;;;;5055404;28;20123;-73
2022/09/23 01:09:22;;;;;;;3.85;1.75;;;16.90;90.70;;;;;;5055825;28;20131;-73
2022/09/23 01:12:25;;;;;;;4.60;1.98;;;16.90;90.80;;;;;;5035900;28;20053;-74
2022/09/23 01:14:56;;;;;;;2.78;1.60;;;16.90;90.80;;;;;;5035958;28;20060;-74
2022/09/23 01:18:05;;;;;;;1.85;1.25;;;16.90;90.80;;;;;;5036415;28;20135;-74
2022/09/23 01:20:47;;;;;;;2.60;1.30;;;16.90;90.70;;;;;;5035871;28;20418;-73
2022/09/23 01:23:15;;;;;;;2.17;1.20;;;16.90;90.70;;;;;;5019955;28;20060;-73
2022/09/23 01:25:55;;;;;;;2.33;1.20;;;16.90;90.70;;;;;;5035621;28;20084;-77
2022/09/23 01:28:58;;;;;;;2.63;1.63;;;16.90;90.80;;;;;;5035305;28;20053;-73
2022/09/23 01:32:02;;;;;;;3.15;1.80;;;16.80;90.70;;;;;;4995420;28;20081;-75
2022/09/23 01:34:57;;;;;;;5.35;1.63;;;16.80;90.80;;;;;;5023760;28;20098;-73
2022/09/23 01:37:39;;;;;;;2.40;1.20;;;16.80;90.80;;;;;;5053374;28;20482;-73
2022/09/23 01:40:21;;;;;;;2.97;1.50;;;16.80;90.80;;;;;;5035878;28;20548;-74
2022/09/23 01:43:08;;;;;;;2.85;1.20;;;16.80;90.80;;;;;;5035252;28;20107;-74
2022/09/23 01:45:44;;;;;;;4.13;2.28;;;16.70;90.90;;;;;;5019071;28;20053;-74
2022/09/23 01:49:09;;;;;;;3.10;1.40;;;16.70;90.90;;;;;;5019373;28;20049;-73
2022/09/23 01:51:41;;;;;;;4.10;1.40;;;16.70;90.90;;;;;;5011304;28;20519;-73
2022/09/23 01:54:20;;;;;;;4.43;2.08;;;16.70;90.80;;;;;;4978782;28;20042;-74
2022/09/23 01:57:19;;;;;;;3.90;1.90;;;16.70;90.80;;;;;;4994727;28;20164;-73
2022/09/23 01:59:56;;;;;;;3.53;2.50;;;16.70;90.80;;;;;;5045225;28;20119;-73
2022/09/23 02:02:36;;;;;;;3.85;2.78;;;16.60;90.70;;;;;;5035171;28;20048;-73
2022/09/23 02:05:11;;;;;;;3.17;1.92;;;16.60;90.80;;;;;;5053423;28;20060;-74
2022/09/23 02:07:42;;;;;;;5.00;2.28;;;16.60;90.80;;;;;;5050744;28;20037;-73
2022/09/23 02:10:18;;;;;;;2.65;1.90;;;16.60;90.80;;;;;;5053085;28;20491;-73
2022/09/23 02:12:50;;;;;;;2.65;1.52;;;16.50;90.70;;;;;;5051237;28;20049;-74
2022/09/23 02:15:22;;;;;;;4.97;2.03;;;16.50;90.80;;;;;;5051733;28;20079;-73
2022/09/23 02:17:54;;;;;;;4.32;2.50;;;16.50;90.80;;;;;;5051862;28;20471;-73
2022/09/23 02:20:28;;;;;;;3.38;1.63;;;16.50;90.80;;;;;;5018801;28;20049;-74
2022/09/23 02:23:00;;;;;;;3.17;1.88;;;16.50;90.80;;;;;;5052458;28;20052;-76
2022/09/23 02:25:38;;;;;;;3.08;1.95;;;16.50;90.80;;;;;;5019231;28;20479;-73
2022/09/23 02:28:18;;;;;;;5.13;2.45;;;16.40;90.70;;;;;;5051100;28;20159;-75
2022/09/23 02:30:55;;;;;;;4.20;2.30;;;16.50;90.80;;;;;;5052567;28;20135;-73
2022/09/23 02:33:56;;;;;;;3.22;2.13;;;16.50;90.70;;;;;;5034782;28;20041;-73
2022/09/23 02:36:28;;;;;;;9.82;2.33;;;16.50;90.80;;;;;;5031686;28;20373;-73
2022/09/23 02:38:59;;;;;;;2.92;2.08;;;16.50;90.70;;;;;;5050918;28;20045;-73
2022/09/23 02:41:33;;;;;;;4.13;1.58;;;16.50;90.70;;;;;;5034638;28;20056;-73
2022/09/23 02:44:18;;;;;;;4.32;2.00;;;16.50;90.70;;;;;;5050767;28;20064;-73
2022/09/23 02:46:49;;;;;;;3.08;1.85;;;16.50;90.70;;;;;;5034516;28;20122;-73
2022/09/23 02:49:18;;;;;;;2.85;1.42;;;16.40;90.70;;;;;;5050665;28;20038;-74
2022/09/23 02:51:45;;;;;;;4.00;1.63;;;16.40;90.80;;;;;;5034223;28;20073;-73
2022/09/23 02:54:17;;;;;;;4.15;1.80;;;16.40;90.80;;;;;;5018061;28;20045;-73
2022/09/23 02:56:44;;;;;;;5.82;1.90;;;16.40;90.90;;;;;;5034279;28;20057;-74
2022/09/23 02:59:12;;;;;;;2.67;1.38;;;16.40;90.90;;;;;;5034676;28;20187;-74
2022/09/23 03:02:12;;;;;;;2.60;1.70;;;16.30;91.00;;;;;;5033824;28;20037;-73
2022/09/23 03:04:57;;;;;;;3.55;1.50;;;16.30;91.10;;;;;;5034214;28;20357;-73
2022/09/23 03:07:32;;;;;;;3.85;1.83;;;16.30;91.20;;;;;;5016415;28;20463;-74
2022/09/23 03:10:29;;;;;;;3.20;1.70;;;16.30;91.20;;;;;;5032289;28;20154;-73
2022/09/23 03:13:16;;;;;;;9.93;2.10;;;16.30;91.20;;;;;;5033721;28;20107;-73
2022/09/23 03:16:01;;;;;;;2.47;1.60;;;16.30;91.30;;;;;;5050776;28;20139;-73
2022/09/23 03:18:38;;;;;;;4.85;2.10;;;16.30;91.30;;;;;;5017617;28;20037;-74
2022/09/23 03:21:22;;;;;;;4.45;1.60;;;16.30;91.40;;;;;;5050512;28;20119;-73
2022/09/23 03:23:52;;;;;;;3.10;1.50;;;16.30;91.50;;;;;;5034197;28;20041;-74
2022/09/23 03:26:32;;;;;;;2.20;1.40;;;16.30;91.50;;;;;;5052034;28;20041;-73
2022/09/23 03:29:04;;;;;;;2.67;1.42;;;16.30;91.50;;;;;;5034559;28;20048;-73
2022/09/23 03:31:32;;;;;;;2.50;1.60;;;16.30;91.50;;;;;;5052147;28;20063;-73
2022/09/23 03:34:04;;;;;;;2.08;1.40;;;16.30;91.50;;;;;;5050280;28;20071;-74
2022/09/23 03:36:50;;;;;;;3.78;1.75;;;16.30;91.60;;;;;;5034034;28;20122;-74
2022/09/23 03:40:00;;;;;;;3.05;1.88;;;16.20;91.60;;;;;;5050102;28;20045;-73
2022/09/23 03:42:30;;;;;;;3.00;1.73;;;16.20;91.70;;;;;;5035796;28;20403;-73
2022/09/23 03:45:00;;;;;;;2.85;1.50;;;16.20;91.80;;;;;;5050304;28;20052;-74
2022/09/23 03:47:29;;;;;;;2.50;1.30;;;16.20;91.80;;;;;;5033649;28;20041;-74
2022/09/23 03:49:57;;;;;;;2.92;1.48;;;16.20;91.90;;;;;;5049883;28;20033;-73
2022/09/23 03:52:25;;;;;;;5.13;1.42;;;16.20;91.90;;;;;;5050787;28;20151;-76
2022/09/23 03:54:53;;;;;;;2.95;1.75;;;16.10;92.00;;;;;;5049378;28;20467;-74
2022/09/23 03:57:21;;;;;;;3.47;1.63;;;16.10;92.00;;;;;;5032753;28;20041;-74
2022/09/23 03:59:50;;;;;;;2.92;1.40;;;16.10;92.10;;;;;;5049739;28;20558;-75
2022/09/23 04:02:19;;;;;;;3.17;1.73;;;16.10;92.10;;;;;;5032815;28;20099;-73
2022/09/23 04:04:46;;;;;;;4.43;1.60;;;16.10;92.10;;;;;;5050016;28;20455;-74
2022/09/23 04:07:14;;;;;;;2.83;1.77;;;16.10;92.20;;;;;;5050102;28;20053;-77
2022/09/23 04:09:42;;;;;;;6.07;2.22;;;16.10;92.20;;;;;;5049671;28;20784;-73
2022/09/23 04:12:14;;;;;;;3.22;1.65;;;16.10;92.30;;;;;;5049392;28;20095;-73
2022/09/23 04:14:43;;;;;;;2.08;1.35;;;16.10;92.30;;;;;;5049773;28;20499;-79
2022/09/23 04:17:11;;;;;;;2.95;1.60;;;16.10;92.40;;;;;;5032801;28;20162;-73
2022/09/23 04:19:39;;;;;;;2.60;1.55;;;16.10;92.40;;;;;;5033276;28;20044;-73
2022/09/23 04:22:07;;;;;;;4.57;1.70;;;16.10;92.40;;;;;;5049470;28;20088;-73
2022/09/23 04:24:34;;;;;;;5.35;2.40;;;16.00;92.50;;;;;;5033128;28;20068;-74
2022/09/23 04:27:02;;;;;;;6.32;2.58;;;16.10;92.70;;;;;;5033147;28;20048;-73
2022/09/23 04:29:29;;;;;;;4.80;2.30;;;16.10;92.70;;;;;;5049591;28;20044;-73
2022/09/23 04:31:57;;;;;;;4.28;2.22;;;16.10;92.80;;;;;;5032214;28;20493;-74
2022/09/23 04:34:25;;;;;;;4.20;2.10;;;16.10;92.90;;;;;;5032334;28;20410;-74
2022/09/23 04:36:52;;;;;;;4.38;2.00;;;16.10;92.90;;;;;;5049055;28;20821;-74
2022/09/23 04:39:20;;;;;;;3.22;1.60;;;16.10;92.90;;;;;;5050291;28;20076;-74
2022/09/23 04:41:47;;;;;;;2.42;1.40;;;16.10;93.00;;;;;;5032445;28;20041;-74
2022/09/23 04:44:15;;;;;;;3.38;1.50;;;16.10;93.00;;;;;;5048936;28;20071;-74
2022/09/23 04:46:46;;;;;;;2.55;1.40;;;16.20;93.00;;;;;;5048773;28;20102;-74
2022/09/23 04:49:15;;;;;;;1.80;1.05;;;16.20;92.90;;;;;;5032460;28;20049;-75
2022/09/23 04:51:42;;;;;;;2.65;1.50;;;16.30;92.80;;;;;;5048143;28;20041;-74
2022/09/23 04:54:12;;;;;;;2.28;1.23;;;16.40;92.70;;;;;;5048737;28;20102;-74
2022/09/23 04:56:40;;;;;;;3.60;1.73;;;16.40;92.60;;;;;;5032489;28;20087;-74
2022/09/23 04:59:07;;;;;;;3.47;1.65;;;16.60;92.50;;;;;;5032023;28;20439;-74
2022/09/23 05:01:36;;;;;;;2.42;1.45;;;16.70;92.40;;;;;;5015618;28;20152;-74
2022/09/23 05:04:09;;;;;;;2.10;1.52;;;16.80;92.20;;;;;;5016069;28;20470;-74
2022/09/23 05:06:37;;;;;;;2.17;1.20;;;16.90;92.10;;;;;;5048354;28;20037;-74
2022/09/23 05:09:06;;;;;;;5.18;1.77;;;17.00;91.90;;;;;;5031829;28;20060;-74
2022/09/23 05:11:34;;;;;;;3.28;1.40;;;17.20;91.70;;;;;;5031321;28;20498;-74
2022/09/23 05:14:02;;;;;;;3.38;1.63;;;17.30;91.50;;;;;;5032043;28;20087;-74
2022/09/23 05:16:30;;;;;;;2.35;1.50;;;17.40;91.40;;;;;;5031649;28;20053;-81
2022/09/23 05:18:58;;;;;;;2.88;1.77;;;17.50;91.30;;;;;;5031779;28;20067;-73
2022/09/23 05:21:29;;;;;;;2.63;1.50;;;17.60;91.20;;;;;;5031402;28;20096;-73
2022/09/23 05:24:00;;;;;;;3.78;1.50;;;17.70;91.10;;;;;;5048363;28;20047;-74
2022/09/23 05:26:29;;;;;;;4.55;1.80;;;17.90;91.10;;;;;;5030820;28;20392;-74
2022/09/23 05:28:57;;;;;;;3.28;1.40;;;18.00;90.90;;;;;;5029613;28;20107;-73
2022/09/23 05:31:28;;;;;;;2.90;1.85;;;18.10;90.80;;;;;;5031561;28;20053;-74
2022/09/23 05:33:58;;;;;;;3.03;1.85;;;18.30;90.60;;;;;;5031415;28;20045;-79
2022/09/23 05:36:27;;;;;;;2.65;1.30;;;18.40;90.60;;;;;;5031632;28;20045;-83
2022/09/23 05:38:58;;;;;;;4.25;1.52;;;18.60;90.50;;;;;;5049551;28;20106;-74
2022/09/23 05:41:26;;;;;;;3.65;1.65;;;18.70;90.30;;;;;;5032036;28;20092;-73
2022/09/23 05:43:55;;;;;;;2.90;2.20;;;18.90;90.30;;;;;;5051610;28;20044;-74
2022/09/23 05:46:26;;;;;;;3.38;1.80;;;19.10;90.20;;;;;;5051787;28;20421;-75
2022/09/23 05:48:55;;;;;;;9.15;2.50;;;19.30;90.10;;;;;;5051732;28;20112;-73
2022/09/23 05:51:26;;;;;;;4.07;1.92;;;19.40;89.90;;;;;;5051622;28;20100;-73
2022/09/23 05:53:57;;;;;;;3.13;2.13;;;19.50;89.70;;;;;;5051644;28;20057;-73
2022/09/23 05:56:26;;;;;;;3.10;1.80;;;19.80;89.60;;;;;;5035265;28;20116;-73
2022/09/23 05:58:56;;;;;;;3.00;1.75;;;19.90;89.30;;;;;;5052694;28;20041;-74
2022/09/23 06:01:26;;;;;;;3.17;2.10;;;20.00;89.10;;;;;;5052569;28;20037;-73
2022/09/23 06:03:56;;;;;;;4.53;2.65;;;20.20;88.70;;;;;;5035298;28;20148;-73
2022/09/23 06:06:30;;;;;;;3.63;1.58;;;20.30;88.50;;;;;;5035093;28;20427;-74
2022/09/23 06:08:59;;;;;;;3.30;1.90;;;20.50;88.30;;;;;;5018832;28;20053;-74
2022/09/23 06:11:30;;;;;;;3.33;2.00;;;20.70;88.00;;;;;;5050561;28;20051;-74
2022/09/23 06:13:59;;;;;;;3.25;2.15;;;20.90;87.80;;;;;;5050946;28;20049;-73
2022/09/23 06:16:29;;;;;;;5.00;2.20;;;21.00;87.80;;;;;;5018448;28;20041;-75
2022/09/23 06:18:59;;;;;;;3.92;2.20;;;21.20;87.80;;;;;;5050577;28;20037;-74
2022/09/23 06:21:29;;;;;;;2.65;1.80;;;21.40;87.50;;;;;;5050825;28;20041;-76
2022/09/23 06:23:59;;;;;;;3.08;2.10;;;21.50;87.20;;;;;;5030462;28;20211;-74
2022/09/23 06:26:32;;;;;;;4.93;3.45;;;21.70;87.00;;;;;;5037120;28;20129;-74
2022/09/23 06:29:01;;;;;;;4.05;2.30;;;21.90;86.80;;;;;;5035413;28;20472;-75
2022/09/23 06:31:29;;;;;;;8.27;2.38;;;22.10;86.20;;;;;;5035588;28;20098;-77
2022/09/23 06:33:57;;;;;;;3.70;1.75;;;22.20;85.60;;;;;;5046742;28;20037;-74
2022/09/23 06:36:33;;;;;;;3.90;2.15;;;22.40;85.10;;;;;;5020264;28;20503;-83
2022/09/23 06:39:07;;;;;;;4.50;2.08;;;22.50;84.70;;;;;;5030075;28;20495;-74
2022/09/23 06:41:35;;;;;;;2.67;1.70;;;22.60;84.20;;;;;;5046869;28;20045;-83
2022/09/23 06:44:06;;;;;;;2.97;2.05;;;22.80;84.10;;;;;;5027708;28;20075;-75
2022/09/23 06:46:35;;;;;;;3.80;2.03;;;22.90;83.60;;;;;;5028352;28;20055;-74
2022/09/23 06:49:03;;;;;;;4.88;2.08;;;23.10;83.40;;;;;;5027148;28;20053;-75
2022/09/23 06:51:30;;;;;;;5.22;2.08;;;23.20;83.10;;;;;;5026858;28;20148;-74
2022/09/23 06:53:59;;;;;;;6.53;2.30;;;23.40;83.10;;;;;;5024025;28;20052;-74
2022/09/23 06:56:26;;;;;;;6.15;2.10;;;23.50;82.70;;;;;;5048364;28;20049;-74
2022/09/23 06:58:54;;;;;;;8.27;3.67;;;23.70;82.60;;;;;;5030432;28;20420;-73
2022/09/23 07:01:22;;;;;;;3.92;2.30;;;23.80;82.50;;;;;;5049806;28;20056;-73
2022/09/23 07:03:49;;;;;;;4.93;2.63;;;23.90;82.60;;;;;;5033747;28;20044;-73
2022/09/23 07:06:17;;;;;;;7.60;2.45;;;24.00;82.40;;;;;;5033241;28;20053;-74
2022/09/23 07:08:46;;;;;;;6.10;1.90;;;24.10;82.40;;;;;;5050352;28;20041;-73
2022/09/23 07:11:14;;;;;;;6.93;2.40;;;24.10;82.80;;;;;;5048462;28;20504;-75
2022/09/23 07:13:42;;;;;;;4.45;2.35;;;24.10;84.10;;;;;;5067559;28;20498;-75
2022/09/23 07:16:10;;;;;;;4.60;2.58;;;24.20;84.80;;;;;;5046638;28;20036;-73
2022/09/23 07:18:38;;;;;;;3.78;2.35;;;24.20;85.00;;;;;;5020531;28;20054;-73
2022/09/23 07:21:13;;;;;;;3.85;2.00;;;24.30;85.20;;;;;;5038059;28;20079;-72
2022/09/23 07:23:50;;;;;;;3.97;2.22;;;24.40;84.90;;;;;;5042116;28;20131;-79
2022/09/23 07:26:19;;;;;;;4.35;2.60;;;24.50;83.70;;;;;;5023770;28;20161;-74
2022/09/23 07:28:46;;;;;;;3.38;1.80;;;24.50;83.40;;;;;;5031133;28;20440;-74
2022/09/23 07:31:16;;;;;;;4.13;2.08;;;24.40;83.30;;;;;;4998907;28;20420;-74
2022/09/23 07:33:48;;;;;;;3.45;2.15;;;24.30;83.40;;;;;;5048498;28;20053;-73
2022/09/23 07:36:18;;;;;;;2.70;2.05;;;24.30;84.10;;;;;;5048060;28;20052;-74
2022/09/23 07:38:46;;;;;;;4.20;1.85;;;24.30;82.60;;;;;;5030676;28;20110;-72
2022/09/23 07:41:17;;;;;;;2.13;1.42;;;24.40;81.50;;;;;;4997468;28;20053;-78
2022/09/23 07:43:45;;;;;;;3.30;1.67;;;24.30;80.50;;;;;;5030483;28;20161;-74
2022/09/23 07:46:16;;;;;;;2.85;1.80;;;24.20;79.60;;;;;;5048666;28;20141;-72
2022/09/23 07:48:44;;;;;;;4.50;2.08;;;24.20;79.20;;;;;;5029965;28;20079;-71
2022/09/23 07:51:17;;;;;;;2.92;1.92;;;24.10;78.70;;;;;;5030350;28;20356;-72
2022/09/23 07:53:50;;;;;;;6.22;2.95;;;24.00;77.80;;;;;;5030481;28;20119;-72
2022/09/23 07:56:19;;;;;;;3.17;1.80;;;24.10;79.30;;;;;;5013224;28;20059;-72
2022/09/23 07:58:59;;;;;;;3.47;1.90;;;24.10;78.90;;;;;;5029849;28;20509;-74
2022/09/23 08:01:31;;;;;;;6.75;2.10;;;24.20;79.20;;;;;;5048285;28;20482;-74
2022/09/23 08:04:02;;;;;;;5.28;1.92;;;24.40;78.80;;;;;;5029752;28;20048;-72
2022/09/23 08:06:30;;;;;;;2.88;1.90;;;24.20;76.40;;;;;;5029321;28;20048;-72
2022/09/23 08:08:59;;;;;;;2.67;1.60;;;24.20;76.80;;;;;;5030598;28;20124;-72
2022/09/23 08:11:27;;;;;;;2.72;1.70;;;24.20;77.60;;;;;;5026617;28;20061;-71
2022/09/23 08:13:56;;;;;;;2.30;1.70;;;24.20;79.50;;;;;;5010615;28;20491;-71
2022/09/23 08:16:23;;;;;;;4.53;2.22;;;24.20;77.50;;;;;;5010161;28;20147;-71
2022/09/23 08:18:51;;;;;;;2.97;1.77;;;24.10;77.30;;;;;;5010063;28;20056;-73
2022/09/23 08:21:20;;;;;;;4.30;2.67;;;24.10;78.60;;;;;;5010328;28;20445;-72
2022/09/23 08:23:48;;;;;;;7.32;2.42;;;24.20;78.90;;;;;;5027545;28;20050;-76
2022/09/23 08:26:16;;;;;;;5.15;1.90;;;24.20;77.50;;;;;;5027343;28;20051;-82
2022/09/23 08:28:46;;;;;;;4.32;1.70;;;24.30;75.00;;;;;;5026669;28;20146;-77
2022/09/23 08:31:14;;;;;;;3.35;2.13;;;24.30;75.70;;;;;;5028860;28;20049;-76
2022/09/23 08:33:42;;;;;;;3.33;1.70;;;24.40;77.10;;;;;;4994184;28;20073;-76
2022/09/23 08:36:10;;;;;;;4.80;2.00;;;24.50;77.30;;;;;;5010164;28;20182;-74
2022/09/23 08:38:37;;;;;;;3.25;1.88;;;24.30;76.70;;;;;;5026311;28;20152;-78
2022/09/23 08:41:25;;;;;;;2.67;1.67;;;24.30;77.20;;;;;;5027729;28;20037;-76
2022/09/23 08:44:03;;;;;;;3.05;1.80;;;24.20;76.80;;;;;;5010666;28;20045;-75
2022/09/23 08:46:36;;;;;;;2.78;1.40;;;24.30;76.10;;;;;;5027907;28;20041;-75
2022/09/23 08:49:07;;;;;;;3.97;1.88;;;24.30;73.00;;;;;;5011533;28;20522;-77
2022/09/23 08:51:45;;;;;;;5.53;1.73;;;24.20;75.60;;;;;;5021206;28;20050;-74
2022/09/23 08:54:15;;;;;;;7.57;2.45;;;24.30;73.40;;;;;;5036417;28;20422;-75
2022/09/23 08:56:48;;;;;;;2.42;1.63;;;23.90;75.40;;;;;;5019819;28;20085;-76
2022/09/23 08:59:51;;;;;;;3.20;1.85;;;24.00;76.70;;;;;;5028713;28;20200;-76
2022/09/23 09:02:21;;;;;;;3.50;1.85;;;24.20;76.80;;;;;;4985858;28;20515;-75
2022/09/23 09:04:53;;;;;;;3.20;2.00;;;24.40;73.60;;;;;;5021369;28;20474;-76
2022/09/23 09:07:32;;;;;;;3.47;2.00;;;24.40;75.50;;;;;;5028865;28;20488;-75
2022/09/23 09:10:37;;;;;;;3.53;1.67;;;24.70;75.90;;;;;;5027648;28;20048;-76
2022/09/23 09:13:11;;;;;;;2.33;1.50;;;24.60;74.00;;;;;;5020311;28;20076;-75
2022/09/23 09:15:51;;;;;;;5.43;1.60;;;24.40;70.20;;;;;;5027470;28;20046;-75
2022/09/23 09:18:21;;;;;;;3.13;1.63;;;24.40;72.10;;;;;;5031251;28;20156;-77
2022/09/23 09:21:08;;;;;;;3.55;1.70;;;24.50;71.80;;;;;;5014334;28;20503;-76
2022/09/23 09:23:51;;;;;;;7.25;1.90;;;24.60;73.10;;;;;;5030790;28;20046;-75
2022/09/23 09:26:28;;;;;;;2.80;1.60;;;24.60;73.60;;;;;;5032511;28;20069;-77
2022/09/23 09:29:19;;;;;;;4.90;2.67;;;24.60;69.40;;;;;;5031607;28;20057;-74
2022/09/23 09:32:18;;;;;;;2.95;1.70;;;24.40;70.10;;;;;;5031295;28;20514;-74
2022/09/23 09:34:53;;;;;;;2.63;1.75;;;24.40;74.10;;;;;;5031977;28;20049;-75
2022/09/23 09:37:40;;;;;;;4.87;1.90;;;24.40;74.20;;;;;;5015239;28;20091;-73
2022/09/23 09:40:12;;;;;;;1.67;1.15;;;24.50;75.60;;;;;;5031175;28;20049;-76
2022/09/23 09:42:41;;;;;;;3.05;1.73;;;24.60;73.40;;;;;;5014710;28;20046;-74
2022/09/23 09:45:12;;;;;;;4.80;1.90;;;24.60;74.20;;;;;;5032768;28;20412;-75
2022/09/23 09:47:59;;;;;;;2.35;1.60;;;24.60;73.00;;;;;;5032346;28;20045;-74
2022/09/23 09:50:48;;;;;;;2.72;1.70;;;24.60;71.40;;;;;;5031194;28;20502;-74
2022/09/23 09:53:34;;;;;;;4.50;2.03;;;24.40;75.10;;;;;;5033739;28;20073;-74
2022/09/23 09:56:08;;;;;;;3.95;1.98;;;24.50;73.90;;;;;;5031856;28;20738;-73
2022/09/23 09:59:00;;;;;;;6.82;2.00;;;24.40;71.40;;;;;;5031541;28;20077;-73
2022/09/23 10:01:30;;;;;;;2.38;1.67;;;24.40;73.10;;;;;;5024959;28;20037;-73
2022/09/23 10:04:00;;;;;;;2.50;1.60;;;24.40;73.90;;;;;;5032813;28;20038;-73
2022/09/23 10:06:31;;;;;;;3.53;1.80;;;24.30;70.70;;;;;;5014935;28;20483;-74
2022/09/23 10:09:13;;;;;;;4.20;1.58;;;24.30;72.60;;;;;;5013196;28;20049;-73
2022/09/23 10:11:43;;;;;;;5.32;2.00;;;24.20;73.90;;;;;;5036784;28;20558;-73
2022/09/23 10:14:17;;;;;;;3.78;1.55;;;23.90;72.90;;;;;;5033173;28;20138;-74
2022/09/23 10:17:00;;;;;;;4.25;1.58;;;23.90;75.70;;;;;;5033750;28;20147;-73
2022/09/23 10:19:29;;;;;;;2.50;1.63;;;24.00;75.70;;;;;;5034562;28;20607;-74
2022/09/23 10:22:01;;;;;;;5.05;1.80;;;24.10;74.40;;;;;;5017662;28;20107;-73
2022/09/23 10:24:31;;;;;;;4.63;1.63;;;24.20;73.00;;;;;;5033727;28;20059;-73
2022/09/23 10:27:08;;;;;;;3.95;1.92;;;24.10;70.40;;;;;;5052579;28;20573;-73
2022/09/23 10:29:49;;;;;;;1.73;1.20;;;24.00;70.00;;;;;;5033540;28;20269;-74
2022/09/23 10:32:36;;;;;;;4.43;1.40;;;23.80;71.50;;;;;;5034977;28;20721;-74
2022/09/23 10:35:12;;;;;;;4.57;2.30;;;23.90;75.20;;;;;;5035253;28;20049;-73
2022/09/23 10:37:58;;;;;;;5.97;1.73;;;24.10;74.80;;;;;;5034827;28;20041;-73
2022/09/23 10:46:49;;;;;;;4.57;1.83;;;24.20;69.30;;;;;;5051547;28;20053;-73
2022/09/23 10:49:39;;;;;;;3.22;1.55;;;24.30;71.30;;;;;;5017525;28;20057;-73
2022/09/23 10:52:13;;;;;;;2.38;1.58;;;24.30;70.40;;;;;;5018442;28;20064;-75
2022/09/23 10:55:06;;;;;;;2.22;1.50;;;24.40;70.40;;;;;;5033372;28;20049;-73
2022/09/23 10:57:55;;;;;;;3.92;1.83;;;24.40;72.40;;;;;;5033875;28;20068;-74
2022/09/23 11:00:42;;;;;;;3.15;1.55;;;24.30;72.00;;;;;;5034645;28;20124;-74
2022/09/23 11:03:18;;;;;;;3.50;1.58;;;24.30;71.30;;;;;;5017616;28;20110;-74
2022/09/23 11:05:58;;;;;;;2.80;1.70;;;24.30;73.50;;;;;;5017570;28;20190;-74
2022/09/23 11:08:37;;;;;;;6.53;1.55;;;24.30;70.30;;;;;;5034432;28;20132;-73
2022/09/23 11:11:10;;;;;;;2.97;1.80;;;24.10;69.40;;;;;;5033891;28;20040;-74
2022/09/23 11:14:37;;;;;;;5.10;2.10;;;23.80;71.90;;;;;;5033592;28;20045;-73
2022/09/23 11:17:47;;;;;;;4.35;1.90;;;23.70;72.00;;;;;;4935487;29;20057;-73
2022/09/23 11:20:31;;;;;;;2.92;1.52;;;23.80;70.50;;;;;;4935061;29;20075;-73
2022/09/23 11:23:21;;;;;;;5.38;2.15;;;23.90;71.70;;;;;;5026077;28;20559;-73
2022/09/23 11:26:09;;;;;;;2.40;1.60;;;24.00;71.20;;;;;;5051440;28;20067;-73
2022/09/23 11:28:55;;;;;;;2.25;1.98;;;24.00;73.90;;;;;;5033199;28;20206;-73
2022/09/23 11:31:29;;;;;;;2.50;1.40;;;24.00;70.70;;;;;;5017001;28;20052;-75
2022/09/23 11:34:25;;;;;;;3.88;1.67;;;24.00;71.40;;;;;;5050831;28;20045;-74
2022/09/23 11:37:04;;;;;;;3.95;1.50;;;24.00;71.50;;;;;;5016913;28;20049;-74
2022/09/23 11:39:48;;;;;;;4.88;2.20;;;24.10;73.40;;;;;;5033301;28;20076;-77
2022/09/23 11:42:30;;;;;;;4.45;2.30;;;24.30;73.60;;;;;;5033127;28;20045;-73
2022/09/23 11:45:05;;;;;;;3.33;1.85;;;24.30;72.60;;;;;;5050902;28;20041;-73
2022/09/23 11:47:45;;;;;;;3.70;1.75;;;24.20;72.50;;;;;;5016430;28;20147;-73
2022/09/23 11:50:28;;;;;;;3.25;2.05;;;24.00;71.60;;;;;;5031839;28;20044;-73
2022/09/23 11:53:16;;;;;;;4.13;2.20;;;23.90;72.40;;;;;;5032384;28;20510;-73
2022/09/23 11:55:51;;;;;;;4.25;2.53;;;23.80;72.90;;;;;;5015999;28;20041;-74
2022/09/23 11:58:28;;;;;;;6.63;2.47;;;23.70;73.00;;;;;;5050293;28;20452;-75
2022/09/23 12:01:06;;;;;;;12.32;2.50;;;23.70;74.50;;;;;;5032514;28;20055;-75
2022/09/23 12:03:57;;;;;;;5.63;3.47;;;23.70;73.60;;;;;;5032684;28;20051;-74
2022/09/23 12:06:47;;;;;;;14.00;12.57;;;23.70;71.90;;;;;;5031237;28;20045;-73
2022/09/23 12:09:24;;;;;;;16.27;12.23;;;23.70;72.80;;;;;;5050256;28;20071;-73
2022/09/23 12:12:12;;;;;;;8.18;5.10;;;23.70;71.60;;;;;;5015765;28;20049;-73
2022/09/23 12:14:52;;;;;;;64.03;57.85;;;23.70;72.30;;;;;;5050284;28;20051;-73
2022/09/23 12:18:05;;;;;;;185.60;132.68;;;23.60;72.70;;;;;;5045368;28;20119;-74
2022/09/23 12:21:00;;;;;;;38.03;34.15;;;23.40;71.10;;;;;;5037950;28;20041;-75
2022/09/23 12:24:05;;;;;;;6.88;5.57;;;23.20;70.30;;;;;;5065891;28;20059;-74
2022/09/23 12:26:33;;;;;;;33.10;24.90;;;23.20;71.10;;;;;;5056901;28;20045;-74
2022/09/23 12:29:05;;;;;;;15.50;9.57;;;23.20;72.30;;;;;;5061778;28;20122;-74
2022/09/23 12:31:37;;;;;;;70.68;49.70;;;23.20;73.70;;;;;;5022359;28;20131;-73
2022/09/23 12:34:21;;;;;;;211.73;168.50;;;23.20;72.10;;;;;;5027544;28;20083;-73
2022/09/23 12:36:49;;;;;;;359.45;273.95;;;23.20;71.40;;;;;;5026433;28;20063;-73
2022/09/23 12:39:29;;;;;;;600.75;490.95;;;23.40;70.50;;;;;;5052660;28;20494;-72
2022/09/23 12:42:03;;;;;;;483.05;358.60;;;23.40;71.90;;;;;;5052025;28;20045;-74
2022/09/23 12:44:40;;;;;;;178.27;126.93;;;23.40;72.90;;;;;;5052018;28;20066;-73
2022/09/23 12:47:20;;;;;;;57.42;45.10;;;23.50;72.80;;;;;;5030558;28;20052;-74
2022/09/23 12:49:49;;;;;;;9.05;6.85;;;23.40;72.30;;;;;;5035486;28;20390;-74
2022/09/23 12:52:17;;;;;;;14.68;11.52;;;23.40;71.70;;;;;;5070866;28;20048;-74
2022/09/23 12:54:47;;;;;;;26.75;18.17;;;23.30;71.80;;;;;;5056099;28;20094;-74
2022/09/23 12:57:32;;;;;;;9.30;6.10;;;23.20;73.10;;;;;;5050061;28;20059;-75
2022/09/23 13:00:24;;;;;;;12.20;2.80;;;23.10;75.10;;;;;;5039135;28;20049;-74
2022/09/23 13:08:48;;;;;;;2.97;1.88;;;23.10;73.60;;;;;;5057524;28;20046;-74
2022/09/23 13:11:26;;;;;;;3.65;2.00;;;23.00;72.50;;;;;;5056167;28;20064;-74
2022/09/23 13:13:59;;;;;;;2.70;2.00;;;22.90;72.50;;;;;;5039573;28;20133;-74
2022/09/23 13:16:42;;;;;;;6.03;1.98;;;22.80;72.50;;;;;;5056471;28;20048;-74
2022/09/23 13:19:25;;;;;;;5.30;2.38;;;22.80;72.80;;;;;;5073980;28;20131;-74
2022/09/23 13:21:52;;;;;;;4.43;2.58;;;22.70;72.20;;;;;;5055848;28;20087;-74
2022/09/23 13:24:29;;;;;;;3.67;2.30;;;22.70;73.60;;;;;;5068840;28;20518;-74
2022/09/23 13:27:22;;;;;;;2.83;1.83;;;22.80;73.40;;;;;;5053274;28;20494;-77
2022/09/23 13:29:58;;;;;;;3.50;2.38;;;22.70;73.40;;;;;;5073331;28;20091;-74
2022/09/23 13:32:34;;;;;;;5.72;2.20;;;22.80;73.30;;;;;;5038698;28;20048;-74
2022/09/23 13:35:11;;;;;;;2.80;1.80;;;22.70;72.90;;;;;;5038995;28;20040;-74
2022/09/23 13:37:48;;;;;;;3.55;2.05;;;22.70;72.70;;;;;;5073150;28;20379;-74
2022/09/23 13:40:22;;;;;;;2.17;1.40;;;22.70;73.00;;;;;;5038952;28;20179;-74